createdAt,value
2018-01-11T00:00:21.920Z,87.97
2018-01-11T00:02:49.965Z,159.50
2018-01-11T00:05:17.503Z,162.50
2018-01-11T00:07:45.045Z,103.83
2018-01-11T00:10:13.087Z,115.03
2018-01-11T00:12:40.631Z,218.27
2018-01-11T00:15:08.180Z,154.27
2018-01-11T00:17:35.747Z,204.57
2018-01-11T00:20:03.287Z,150.87
2018-01-11T00:22:30.820Z,101.60
2018-01-11T00:24:58.621Z,236.20
2018-01-11T00:27:26.165Z,139.83
2018-01-11T00:29:53.710Z,146.60
2018-01-11T00:32:21.300Z,297.08
2018-01-11T00:34:48.839Z,279.47
2018-01-11T00:37:16.447Z,232.25
2018-01-11T00:39:44.012Z,151.43
2018-01-11T00:42:12.320Z,142.70
2018-01-11T00:44:39.864Z,185.40
2018-01-11T00:47:08.654Z,327.77
2018-01-11T00:49:36.199Z,185.23
2018-01-11T00:52:04.499Z,215.60
2018-01-11T00:54:32.078Z,142.23
2018-01-11T00:56:59.619Z,239.53
2018-01-11T00:59:27.176Z,148.70
2018-01-11T01:01:54.739Z,186.23
2018-01-11T01:04:22.317Z,206.10
2018-01-11T01:06:49.851Z,141.57
2018-01-11T01:09:17.775Z,175.20
2018-01-11T01:11:45.806Z,338.53
2018-01-11T01:14:23.580Z,422.90
2018-01-11T01:21:13.529Z,187.27
2018-01-11T01:23:41.068Z,224.83
2018-01-11T01:26:08.607Z,233.47
2018-01-11T01:28:39.611Z,249.60
2018-01-11T01:31:07.156Z,265.00
2018-01-11T01:33:34.694Z,238.73
2018-01-11T01:36:02.259Z,296.87
2018-01-11T01:38:29.794Z,271.60
2018-01-11T01:40:58.107Z,220.00
2018-01-11T01:43:26.444Z,247.00
2018-01-11T01:45:53.998Z,248.83
2018-01-11T01:48:34.424Z,262.43
2018-01-11T01:51:01.976Z,216.80
2018-01-11T01:53:29.524Z,217.35
2018-01-11T01:55:57.095Z,146.70
2018-01-11T01:58:24.654Z,249.07
2018-01-11T02:00:52.192Z,194.77
2018-01-11T02:03:19.759Z,214.20
2018-01-11T02:05:47.302Z,149.90
2018-01-11T02:08:16.552Z,204.15
2018-01-11T02:10:44.816Z,328.17
2018-01-11T02:13:13.122Z,134.10
2018-01-11T02:15:40.665Z,174.07
2018-01-11T02:18:08.242Z,150.63
2018-01-11T02:20:35.779Z,156.33
2018-01-11T02:23:03.321Z,167.23
2018-01-11T02:25:30.907Z,151.33
2018-01-11T02:27:58.519Z,196.97
2018-01-11T02:30:26.060Z,131.67
2018-01-11T02:32:54.547Z,132.47
2018-01-11T02:35:22.087Z,77.50
2018-01-11T02:37:49.623Z,111.77
2018-01-11T02:40:17.183Z,85.63
2018-01-11T02:42:44.763Z,66.43
2018-01-11T02:45:12.303Z,37.20
2018-01-11T02:47:39.879Z,64.13
2018-01-11T02:50:07.422Z,59.45
2018-01-11T02:52:34.962Z,91.20
2018-01-11T02:55:02.761Z,92.73
2018-01-11T02:57:30.307Z,60.85
2018-01-11T02:59:57.848Z,75.73
2018-01-11T03:02:25.420Z,39.13
2018-01-11T03:04:52.965Z,77.67
2018-01-11T03:07:21.267Z,56.90
2018-01-11T03:09:48.823Z,98.40
2018-01-11T03:12:16.507Z,135.45
2018-01-11T03:14:45.119Z,84.70
2018-01-11T03:17:13.079Z,107.87
2018-01-11T03:19:41.380Z,67.60
2018-01-11T03:22:08.911Z,66.17
2018-01-11T03:24:36.513Z,76.57
2018-01-11T03:27:04.051Z,86.70
2018-01-11T03:29:31.595Z,117.60
2018-01-11T03:31:59.155Z,112.07
2018-01-11T03:34:26.699Z,118.07
2018-01-11T03:36:54.251Z,156.10
2018-01-11T03:39:22.399Z,174.40
2018-01-11T03:41:49.942Z,116.53
2018-01-11T03:44:17.480Z,112.57
2018-01-11T03:46:45.812Z,140.63
2018-01-11T03:49:14.463Z,124.03
2018-01-11T03:51:42.001Z,113.63
2018-01-11T03:54:10.326Z,127.03
2018-01-11T03:56:37.854Z,165.17
2018-01-11T03:59:05.400Z,139.27
2018-01-11T04:01:33.523Z,133.93
2018-01-11T04:04:01.063Z,234.60
2018-01-11T04:06:28.606Z,143.17
2018-01-11T04:08:56.252Z,198.47
2018-01-11T04:11:24.568Z,119.30
2018-01-11T04:13:52.120Z,99.93
2018-01-11T04:16:21.111Z,146.57
2018-01-11T04:18:48.643Z,134.63
2018-01-11T04:21:17.255Z,132.75
2018-01-11T04:23:45.116Z,131.33
2018-01-11T04:26:13.678Z,220.57
2018-01-11T04:28:41.223Z,240.87
2018-01-11T04:31:09.580Z,294.77
2018-01-11T04:33:37.119Z,365.93
2018-01-11T04:36:04.683Z,267.23
2018-01-11T04:38:32.243Z,297.10
2018-01-11T04:40:59.771Z,82.70
2018-01-11T04:43:27.323Z,97.95
2018-01-11T04:45:55.379Z,250.10
2018-01-11T04:48:23.679Z,177.00
2018-01-11T04:50:51.214Z,159.27
2018-01-11T04:53:18.780Z,84.53
2018-01-11T04:55:47.085Z,174.73
2018-01-11T04:58:16.281Z,158.20
2018-01-11T05:00:49.556Z,108.93
2018-01-11T05:03:17.857Z,71.70
2018-01-11T05:05:45.404Z,106.30
2018-01-11T05:08:25.335Z,41.35
2018-01-11T05:13:29.295Z,58.30
2018-01-11T05:15:56.832Z,37.37
2018-01-11T05:18:25.316Z,28.80
2018-01-11T05:20:52.874Z,35.70
2018-01-11T05:23:20.411Z,28.82
2018-01-11T05:25:47.952Z,32.50
2018-01-11T05:28:16.907Z,28.02
2018-01-11T05:30:44.479Z,24.90
2018-01-11T05:33:12.011Z,28.67
2018-01-11T05:35:39.619Z,32.60
2018-01-11T05:38:07.152Z,31.40
2018-01-11T05:40:34.678Z,35.13
2018-01-11T05:43:03.012Z,42.67
2018-01-11T05:45:30.547Z,39.72
2018-01-11T05:47:58.079Z,30.60
2018-01-11T05:50:26.927Z,30.00
2018-01-11T05:52:54.467Z,30.40
2018-01-11T05:55:21.995Z,33.20
2018-01-11T05:57:49.555Z,44.13
2018-01-11T06:00:17.088Z,66.10
2018-01-11T06:02:45.400Z,75.23
2018-01-11T06:05:15.443Z,117.15
2018-01-11T06:07:42.988Z,56.47
2018-01-11T06:10:10.533Z,66.73
2018-01-11T06:12:38.475Z,55.73
2018-01-11T06:15:06.018Z,59.37
2018-01-11T06:17:33.596Z,70.30
2018-01-11T06:20:02.770Z,50.70
2018-01-11T06:22:30.307Z,40.70
2018-01-11T06:24:57.863Z,40.10
2018-01-11T06:27:25.424Z,43.85
2018-01-11T06:29:52.974Z,39.57
2018-01-11T06:32:20.516Z,33.42
2018-01-11T06:34:48.116Z,33.47
2018-01-11T06:37:16.540Z,37.63
2018-01-11T06:39:44.080Z,34.57
2018-01-11T06:42:11.631Z,46.80
2018-01-11T06:44:39.411Z,45.43
2018-01-11T06:47:06.938Z,29.50
2018-01-11T06:49:34.496Z,31.15
2018-01-11T06:52:02.039Z,29.40
2018-01-11T06:54:29.575Z,34.50
2018-01-11T06:56:57.195Z,32.40
2018-01-11T06:59:24.731Z,33.07
2018-01-11T07:01:52.259Z,27.80
2018-01-11T07:04:19.820Z,31.35
2018-01-11T07:06:47.383Z,31.87
2018-01-11T07:09:16.424Z,32.83
2018-01-11T07:11:43.987Z,38.50
2018-01-11T07:14:11.526Z,32.45
2018-01-11T07:16:39.059Z,32.70
2018-01-11T07:19:07.215Z,31.23
2018-01-11T07:21:35.183Z,27.43
2018-01-11T07:24:02.715Z,30.07
2018-01-11T07:26:30.285Z,26.37
2018-01-11T07:28:57.825Z,26.93
2018-01-11T07:31:25.355Z,26.77
2018-01-11T07:33:52.915Z,28.33
2018-01-11T07:36:20.451Z,29.58
2018-01-11T07:38:47.999Z,27.90
2018-01-11T07:41:17.451Z,27.30
2018-01-11T07:43:44.981Z,30.57
2018-01-11T07:46:12.518Z,28.62
2018-01-11T07:48:40.858Z,31.63
2018-01-11T07:51:08.408Z,27.83
2018-01-11T07:53:35.948Z,25.60
2018-01-11T07:56:03.508Z,27.90
2018-01-11T07:58:31.813Z,25.80
2018-01-11T08:00:59.355Z,25.10
2018-01-11T08:03:27.444Z,28.27
2018-01-11T08:05:54.975Z,30.20
2018-01-11T08:08:22.504Z,29.37
2018-01-11T08:10:50.075Z,28.33
2018-01-11T08:13:18.646Z,30.60
2018-01-11T08:15:46.175Z,27.23
2018-01-11T08:18:15.457Z,26.90
2018-01-11T08:20:43.123Z,26.53
2018-01-11T08:23:11.028Z,25.27
2018-01-11T08:25:39.646Z,26.90
2018-01-11T08:28:07.189Z,25.23
2018-01-11T08:30:34.723Z,26.57
2018-01-11T08:33:02.321Z,26.77
2018-01-11T08:35:29.859Z,23.07
2018-01-11T08:37:58.228Z,24.73
2018-01-11T08:40:25.752Z,21.47
2018-01-11T08:42:53.280Z,25.33
2018-01-11T08:45:20.815Z,22.57
2018-01-11T08:47:48.847Z,24.80
2018-01-11T08:50:16.527Z,25.67
2018-01-11T08:52:44.068Z,26.03
2018-01-11T08:55:11.622Z,31.37
2018-01-11T08:57:39.155Z,26.70
2018-01-11T09:00:06.691Z,33.53
2018-01-11T09:02:35.023Z,27.73
2018-01-11T09:05:02.565Z,32.40
2018-01-11T09:07:30.118Z,25.53
2018-01-11T09:09:58.011Z,25.33
2018-01-11T09:12:25.550Z,26.13
2018-01-11T09:14:53.087Z,26.00
2018-01-11T09:17:20.660Z,24.45
2018-01-11T09:19:48.187Z,24.33
2018-01-11T09:22:16.440Z,24.05
2018-01-11T09:24:44.319Z,23.40
2018-01-11T09:27:11.856Z,20.70
2018-01-11T09:29:39.391Z,24.07
2018-01-11T09:32:07.050Z,23.73
2018-01-11T09:34:34.720Z,25.57
2018-01-11T09:37:02.325Z,21.67
2018-01-11T09:39:29.900Z,25.80
2018-01-11T09:41:58.215Z,22.00
2018-01-11T09:44:25.751Z,23.70
2018-01-11T09:46:53.307Z,24.60
2018-01-11T09:49:21.615Z,23.47
2018-01-11T09:51:49.142Z,23.90
2018-01-11T09:54:17.895Z,24.53
2018-01-11T09:56:46.279Z,24.00
2018-01-11T09:59:16.564Z,22.23
2018-01-11T10:01:44.124Z,29.87
2018-01-11T10:04:11.650Z,32.93
2018-01-11T10:06:39.959Z,30.33
2018-01-11T10:09:07.873Z,27.48
2018-01-11T10:11:35.707Z,32.53
2018-01-11T10:14:04.317Z,22.73
2018-01-11T10:16:32.629Z,25.67
2018-01-11T10:19:01.293Z,19.13
2018-01-11T10:21:29.271Z,21.47
2018-01-11T10:23:57.232Z,20.73
2018-01-11T10:26:25.227Z,20.92
2018-01-11T10:28:53.526Z,20.93
2018-01-11T10:31:21.111Z,27.40
2018-01-11T10:33:48.647Z,22.73
2018-01-11T10:36:16.415Z,27.37
2018-01-11T10:38:44.303Z,21.40
2018-01-11T10:41:11.843Z,19.87
2018-01-11T10:43:39.389Z,22.10
2018-01-11T10:46:07.603Z,22.57
2018-01-11T10:48:35.144Z,20.27
2018-01-11T10:51:03.072Z,23.47
2018-01-11T10:53:31.005Z,20.70
2018-01-11T10:55:58.607Z,22.17
2018-01-11T10:58:26.413Z,19.17
2018-01-11T11:01:00.033Z,25.60
2018-01-11T11:03:27.579Z,23.87
2018-01-11T11:05:55.124Z,22.43
2018-01-11T11:08:22.687Z,21.63
2018-01-11T11:10:50.499Z,19.53
2018-01-11T11:13:18.420Z,25.77
2018-01-11T11:15:46.231Z,22.00
2018-01-11T11:18:26.182Z,27.37
2018-01-11T11:23:56.135Z,22.40
2018-01-11T11:26:24.078Z,22.85
2018-01-11T11:28:53.949Z,21.00
2018-01-11T11:31:21.892Z,22.08
2018-01-11T11:33:49.829Z,23.87
2018-01-11T11:36:17.641Z,26.43
2018-01-11T11:38:45.578Z,21.77
2018-01-11T11:41:15.041Z,24.35
2018-01-11T11:43:42.900Z,22.00
2018-01-11T11:46:11.231Z,20.58
2018-01-11T11:48:40.287Z,20.23
2018-01-11T11:51:08.198Z,22.23
2018-01-11T11:53:37.757Z,23.53
2018-01-11T11:56:05.515Z,22.73
2018-01-11T11:58:33.280Z,22.33
2018-01-11T12:01:01.989Z,21.27
2018-01-11T12:03:29.856Z,26.53
2018-01-11T12:05:57.697Z,21.77
2018-01-11T12:08:26.074Z,22.55
2018-01-11T12:10:53.970Z,21.70
2018-01-11T12:13:21.898Z,22.50
2018-01-11T12:15:49.881Z,22.20
2018-01-11T12:18:17.718Z,19.47
2018-01-11T12:20:45.611Z,21.40
2018-01-11T12:23:14.906Z,18.77
2018-01-11T12:25:42.561Z,19.23
2018-01-11T12:28:10.498Z,22.90
2018-01-11T12:30:39.609Z,22.37
2018-01-11T12:33:07.916Z,21.60
2018-01-11T12:35:35.573Z,22.50
2018-01-11T12:38:03.191Z,19.00
2018-01-11T12:40:32.132Z,18.77
2018-01-11T12:42:59.673Z,19.67
2018-01-11T12:45:27.244Z,21.10
2018-01-11T12:47:54.781Z,21.10
2018-01-11T12:50:23.088Z,16.00
2018-01-11T12:52:51.857Z,24.10
2018-01-11T12:55:20.652Z,16.87
2018-01-11T12:57:48.560Z,18.63
2018-01-11T13:00:17.090Z,26.12
2018-01-11T13:02:46.004Z,25.03
2018-01-11T13:05:24.102Z,23.85
2018-01-11T13:10:28.275Z,19.60
2018-01-11T13:12:56.119Z,18.87
2018-01-11T13:15:23.961Z,19.73
2018-01-11T13:17:52.681Z,21.23
2018-01-11T13:20:20.551Z,19.00
2018-01-11T13:22:48.649Z,17.90
2018-01-11T13:25:17.055Z,18.02
2018-01-11T13:27:45.738Z,19.80
2018-01-11T13:30:26.176Z,20.08
2018-01-11T13:40:40.088Z,22.63
2018-01-11T13:43:07.641Z,26.17
2018-01-11T13:45:35.179Z,25.40
2018-01-11T13:48:03.148Z,27.97
2018-01-11T13:50:31.513Z,27.13
2018-01-11T13:52:59.826Z,25.03
2018-01-11T13:55:27.388Z,29.50
2018-01-11T13:57:54.935Z,25.80
2018-01-11T14:00:22.701Z,26.83
2018-01-11T14:02:50.270Z,33.50
2018-01-11T14:05:17.808Z,29.00
2018-01-11T14:07:45.355Z,28.23
2018-01-11T14:10:14.266Z,33.00
2018-01-11T14:12:41.793Z,28.83
2018-01-11T14:15:09.336Z,29.50
2018-01-11T14:17:37.813Z,30.27
2018-01-11T14:20:05.379Z,31.97
2018-01-11T14:22:32.961Z,31.97
2018-01-11T14:25:00.560Z,32.65
2018-01-11T14:27:28.121Z,33.17
2018-01-11T14:29:55.676Z,39.50
2018-01-11T14:32:23.544Z,37.40
2018-01-11T14:34:52.870Z,37.03
2018-01-11T14:37:21.195Z,42.47
2018-01-11T14:39:48.765Z,48.53
2018-01-11T14:42:16.758Z,48.33
2018-01-11T14:44:44.338Z,60.27
2018-01-11T14:47:11.956Z,63.60
2018-01-11T14:49:39.902Z,65.07
2018-01-11T14:52:07.934Z,69.77
2018-01-11T14:54:37.037Z,81.93
2018-01-11T14:57:04.978Z,84.03
2018-01-11T14:59:32.899Z,80.65
2018-01-11T15:02:04.435Z,94.97
2018-01-11T15:04:33.311Z,83.87
2018-01-11T15:07:01.176Z,85.30
2018-01-11T15:09:29.982Z,93.20
2018-01-11T15:11:58.775Z,84.87
2018-01-11T15:14:26.850Z,78.40
2018-01-11T15:16:55.399Z,83.03
2018-01-11T15:19:22.953Z,82.43
2018-01-11T15:21:50.504Z,75.55
2018-01-11T15:24:18.100Z,74.57
2018-01-11T15:26:46.427Z,88.80
2018-01-11T15:29:15.690Z,78.30
2018-01-11T15:31:43.473Z,82.03
2018-01-11T15:34:11.549Z,82.17
2018-01-11T15:36:39.519Z,78.67
2018-01-11T15:39:08.444Z,75.60
2018-01-11T15:41:36.385Z,88.07
2018-01-11T15:44:05.553Z,82.37
2018-01-11T15:46:33.554Z,90.87
2018-01-11T15:49:01.494Z,81.40
2018-01-11T15:51:30.181Z,82.25
2018-01-11T15:53:58.943Z,86.80
2018-01-11T15:56:26.838Z,91.67
2018-01-11T15:58:54.437Z,104.57
2018-01-11T16:01:22.727Z,88.43
2018-01-11T16:03:50.303Z,89.47
2018-01-11T16:06:17.876Z,101.70
2018-01-11T16:08:46.213Z,86.30
2018-01-11T16:11:16.372Z,66.87
2018-01-11T16:13:44.588Z,72.43
2018-01-11T16:16:12.168Z,71.80
2018-01-11T16:18:39.717Z,85.83
2018-01-11T16:21:07.273Z,93.93
2018-01-11T16:23:35.317Z,79.80
2018-01-11T16:26:02.858Z,94.13
2018-01-11T16:28:31.417Z,87.32
2018-01-11T16:30:59.010Z,100.30
2018-01-11T16:33:28.093Z,109.30
2018-01-11T16:35:55.677Z,111.37
2018-01-11T16:38:24.077Z,107.18
2018-01-11T16:40:52.408Z,99.00
2018-01-11T16:43:19.992Z,102.60
2018-01-11T16:45:49.114Z,103.90
2018-01-11T16:48:29.109Z,92.01
2018-01-11T16:50:56.701Z,91.07
2018-01-11T16:53:24.265Z,90.80
2018-01-11T16:55:52.591Z,87.57
2018-01-11T16:58:20.176Z,89.15
2018-01-11T17:00:47.740Z,80.80
2018-01-11T17:03:17.304Z,84.53
2018-01-11T17:05:51.001Z,88.67
2018-01-11T17:08:18.562Z,109.60
2018-01-11T17:10:48.979Z,90.33
2018-01-11T17:13:16.581Z,89.10
2018-01-11T17:15:44.141Z,89.87
2018-01-11T17:18:11.756Z,105.80
2018-01-11T17:20:47.278Z,97.37
2018-01-11T17:23:26.350Z,96.80
2018-01-11T17:26:40.456Z,106.90
2018-01-11T17:29:08.831Z,96.60
2018-01-11T17:31:36.448Z,92.30
2018-01-11T17:34:04.074Z,104.30
2018-01-11T17:36:32.380Z,98.28
2018-01-11T17:38:59.942Z,109.10
2018-01-11T17:41:27.541Z,101.90
2018-01-11T17:43:55.146Z,104.33
2018-01-11T17:46:22.869Z,96.40
2018-01-11T17:48:50.752Z,97.68
2018-01-11T17:51:18.426Z,99.93
2018-01-11T17:53:46.222Z,86.50
2018-01-11T17:56:25.566Z,91.30
2018-01-11T18:01:26.083Z,87.83
2018-01-11T18:03:53.689Z,93.07
2018-01-11T18:06:21.488Z,108.23
2018-01-11T18:08:49.757Z,110.97
2018-01-11T18:11:17.369Z,104.30
2018-01-11T18:13:45.074Z,96.87
2018-01-11T18:16:12.816Z,104.38
2018-01-11T18:18:40.557Z,110.13
2018-01-11T18:21:08.343Z,96.63
2018-01-11T18:23:37.470Z,84.73
2018-01-11T18:26:05.908Z,92.23
2018-01-11T18:28:34.484Z,92.45
2018-01-11T18:31:03.524Z,99.30
2018-01-11T18:33:31.152Z,87.40
2018-01-11T18:35:58.886Z,84.80
2018-01-11T18:38:26.651Z,89.07
2018-01-11T18:40:55.308Z,71.60
2018-01-11T18:43:23.637Z,93.73
2018-01-11T18:45:51.279Z,102.73
2018-01-11T18:48:19.356Z,86.97
2018-01-11T18:50:46.977Z,104.30
2018-01-11T18:53:15.898Z,94.33
2018-01-11T18:55:43.542Z,76.93
2018-01-11T18:58:11.858Z,87.60
2018-01-11T19:00:39.517Z,89.57
2018-01-11T19:03:08.061Z,78.03
2018-01-11T19:05:35.740Z,88.45
2018-01-11T19:08:03.552Z,79.20
2018-01-11T19:10:32.061Z,95.80
2018-01-11T19:12:59.898Z,100.03
2018-01-11T19:15:28.209Z,102.43
2018-01-11T19:17:56.717Z,84.47
2018-01-11T19:20:24.315Z,93.80
2018-01-11T19:22:51.904Z,99.47
2018-01-11T19:25:19.523Z,100.50
2018-01-11T19:27:47.982Z,87.73
2018-01-11T19:30:15.608Z,84.85
2018-01-11T19:32:43.147Z,95.33
2018-01-11T19:35:10.702Z,89.80
2018-01-11T19:37:38.311Z,86.73
2018-01-11T19:40:05.945Z,85.37
2018-01-11T19:42:33.572Z,79.85
2018-01-11T19:45:12.302Z,81.03
2018-01-11T19:47:40.140Z,74.83
2018-01-11T19:52:50.676Z,87.57
2018-01-11T19:55:22.711Z,82.67
2018-01-11T19:57:50.280Z,73.67
2018-01-11T20:00:17.870Z,85.85
2018-01-11T20:02:45.669Z,76.03
2018-01-11T20:05:23.659Z,79.30
2018-01-11T20:09:52.534Z,89.07
2018-01-11T20:12:20.411Z,95.32
2018-01-11T20:15:18.246Z,94.55
2018-01-11T20:17:46.315Z,97.70
2018-01-11T20:20:25.553Z,107.55
2018-01-11T20:25:21.701Z,101.47
2018-01-11T20:27:49.455Z,93.13
2018-01-11T20:30:18.542Z,100.67
2018-01-11T20:32:46.256Z,84.70
2018-01-11T20:35:31.658Z,96.28
2018-01-11T20:46:19.342Z,99.93
2018-01-11T20:48:47.682Z,96.27
2018-01-11T20:51:18.138Z,86.73
2018-01-11T20:53:47.341Z,94.17
2018-01-11T20:56:15.588Z,93.37
2018-01-11T20:58:43.177Z,91.03
2018-01-11T21:01:10.756Z,85.20
2018-01-11T21:03:38.309Z,90.77
2018-01-11T21:06:06.616Z,75.30
2018-01-11T21:08:34.196Z,78.10
2018-01-11T21:11:01.744Z,77.07
2018-01-11T21:13:29.293Z,85.53
2018-01-11T21:15:57.232Z,87.10
2018-01-11T21:18:24.906Z,86.80
2018-01-11T21:20:52.494Z,82.63
2018-01-11T21:23:20.100Z,70.65
2018-01-11T21:25:48.458Z,61.40
2018-01-11T21:28:16.470Z,76.87
2018-01-11T21:30:44.083Z,65.30
2018-01-11T21:33:11.671Z,69.63
2018-01-11T21:35:39.994Z,61.63
2018-01-11T21:38:07.640Z,57.95
2018-01-11T21:40:35.361Z,51.53
2018-01-11T21:43:02.979Z,52.87
2018-01-11T22:25:48.341Z,59.93
2018-01-11T22:28:16.452Z,69.00
2018-01-11T22:30:44.034Z,71.67
2018-01-11T22:33:11.753Z,58.65
2018-01-11T22:35:39.482Z,67.23
2018-01-11T22:43:07.738Z,77.53
2018-01-11T22:45:36.956Z,80.30
2018-01-11T22:48:05.195Z,64.27
2018-01-11T22:50:32.882Z,67.55
2018-01-11T22:53:02.776Z,74.07
2018-01-11T22:55:30.490Z,77.03
2018-01-11T22:57:59.046Z,69.17
2018-01-11T23:00:27.015Z,66.75
2018-01-11T23:02:55.402Z,68.57
2018-01-11T23:05:23.102Z,67.53
2018-01-11T23:07:51.082Z,52.70
2018-01-11T23:10:18.714Z,66.22
2018-01-11T23:12:46.659Z,55.40
2018-01-11T23:15:25.337Z,52.25
2018-01-11T23:23:33.879Z,51.37
2018-01-11T23:26:01.849Z,60.80
2018-01-11T23:28:31.086Z,57.58
2018-01-11T23:30:58.778Z,63.20
2018-01-11T23:33:27.446Z,65.75
2018-01-11T23:35:56.475Z,58.63
2018-01-11T23:38:24.188Z,65.60
2018-01-11T23:40:52.784Z,64.50
2018-01-11T23:43:20.635Z,57.78
2018-01-11T23:45:48.628Z,66.03
2018-01-11T23:48:17.129Z,66.22
2018-01-11T23:50:45.297Z,66.10
2018-01-11T23:53:15.901Z,66.03
2018-01-11T23:55:45.019Z,66.60
2018-01-11T23:58:12.868Z,67.18
